createdAt,value
2022-12-11T00:03:41.521Z,1.48
2022-12-11T00:08:33.197Z,1.33
2022-12-11T00:13:24.801Z,-0.04
2022-12-11T00:18:17.189Z,1.14
2022-12-11T00:23:08.833Z,1.44
2022-12-11T00:28:01.115Z,0.60
2022-12-11T00:32:52.712Z,1.23
2022-12-11T00:37:44.228Z,1.68
2022-12-11T00:42:35.823Z,1.70
2022-12-11T00:47:28.251Z,0.93
2022-12-11T00:52:19.830Z,1.50
2022-12-11T00:57:11.542Z,1.11
2022-12-11T01:02:03.136Z,1.87
2022-12-11T01:06:54.707Z,1.67
2022-12-11T01:11:46.291Z,1.38
2022-12-11T01:16:37.942Z,1.08
2022-12-11T01:21:30.012Z,0.90
2022-12-11T01:26:21.833Z,1.51
2022-12-11T01:31:16.549Z,1.80
2022-12-11T01:36:14.942Z,1.43
2022-12-11T01:41:07.403Z,1.24
2022-12-11T01:45:59.189Z,1.56
2022-12-11T01:50:54.554Z,1.78
2022-12-11T01:55:48.339Z,0.99
2022-12-11T02:00:40.189Z,0.00
2022-12-11T02:05:32.393Z,1.36
2022-12-11T02:11:02.558Z,1.58
2022-12-11T02:16:03.103Z,1.71
2022-12-11T02:21:03.114Z,1.60
2022-12-11T02:26:12.291Z,1.78
2022-12-11T02:31:10.338Z,1.38
2022-12-11T02:36:04.960Z,1.52
2022-12-11T02:40:58.857Z,1.83
2022-12-11T02:45:53.563Z,1.24
2022-12-11T02:50:52.834Z,1.71
2022-12-11T02:55:45.893Z,1.63
2022-12-11T03:00:37.455Z,1.36
2022-12-11T03:05:29.751Z,1.78
2022-12-11T03:10:21.347Z,1.50
2022-12-11T03:15:15.715Z,0.74
2022-12-11T03:20:20.008Z,1.65
2022-12-11T03:25:26.025Z,1.73
2022-12-11T03:30:21.437Z,1.69
2022-12-11T03:35:33.903Z,1.78
2022-12-11T03:40:26.994Z,1.33
2022-12-11T03:45:21.583Z,1.20
2022-12-11T03:50:15.242Z,1.07
2022-12-11T03:55:09.009Z,1.25
2022-12-11T04:00:01.063Z,1.94
2022-12-11T04:04:52.717Z,1.53
2022-12-11T04:09:44.254Z,1.71
2022-12-11T04:14:55.200Z,1.58
2022-12-11T04:20:05.394Z,1.33
2022-12-11T04:24:57.114Z,1.88
2022-12-11T04:29:48.645Z,1.87
2022-12-11T04:34:40.723Z,1.01
2022-12-11T04:39:32.384Z,1.29
2022-12-11T04:44:23.943Z,1.28
2022-12-11T04:49:15.604Z,1.82
2022-12-11T04:54:07.165Z,1.75
2022-12-11T04:58:58.762Z,1.65
2022-12-11T05:03:50.453Z,1.14
2022-12-11T05:08:42.939Z,1.66
2022-12-11T05:13:34.469Z,0.67
2022-12-11T05:18:26.445Z,1.09
2022-12-11T05:23:17.953Z,1.60
2022-12-11T05:28:09.553Z,1.68
2022-12-11T05:33:01.096Z,1.38
2022-12-11T05:37:52.621Z,1.77
2022-12-11T05:42:44.167Z,1.82
2022-12-11T05:47:36.169Z,1.37
2022-12-11T05:52:27.772Z,1.70
2022-12-11T05:57:21.036Z,1.40
2022-12-11T06:02:13.107Z,1.70
2022-12-11T06:07:04.777Z,1.67
2022-12-11T06:11:56.324Z,1.77
2022-12-11T06:16:47.879Z,1.77
2022-12-11T06:21:39.434Z,1.44
2022-12-11T06:26:32.048Z,1.77
2022-12-11T06:31:23.704Z,1.47
2022-12-11T06:36:21.389Z,1.39
2022-12-11T06:41:13.562Z,1.30
2022-12-11T06:46:07.251Z,1.62
2022-12-11T06:50:59.073Z,1.53
2022-12-11T06:55:52.008Z,1.61
2022-12-11T07:00:43.699Z,1.54
2022-12-11T07:05:35.667Z,1.19
2022-12-11T07:10:27.289Z,1.64
2022-12-11T07:15:19.177Z,0.95
2022-12-11T07:20:11.045Z,1.48
2022-12-11T07:25:02.740Z,1.26
2022-12-11T07:29:55.508Z,1.22
2022-12-11T07:34:51.934Z,1.25
2022-12-11T07:39:43.854Z,1.24
2022-12-11T07:44:36.718Z,1.44
2022-12-11T07:49:28.427Z,1.17
2022-12-11T07:54:21.022Z,1.18
2022-12-11T07:59:13.560Z,1.25
2022-12-11T08:04:08.052Z,1.55
2022-12-11T08:09:01.126Z,0.89
2022-12-11T08:13:53.491Z,1.18
2022-12-11T08:18:46.846Z,1.69
2022-12-11T08:23:39.245Z,1.74
2022-12-11T08:28:31.095Z,1.54
2022-12-11T08:33:22.671Z,1.91
2022-12-11T08:38:14.366Z,1.30
2022-12-11T08:43:06.379Z,1.62
2022-12-11T08:48:01.080Z,1.91
2022-12-11T08:52:53.682Z,1.74
2022-12-11T08:57:45.265Z,1.91
2022-12-11T09:02:36.819Z,1.55
2022-12-11T09:07:28.370Z,2.18
2022-12-11T09:12:20.783Z,2.22
2022-12-11T09:17:12.371Z,1.68
2022-12-11T09:22:03.942Z,1.85
2022-12-11T09:26:55.597Z,2.29
2022-12-11T09:31:48.551Z,2.25
2022-12-11T09:36:41.969Z,2.46
2022-12-11T09:41:55.008Z,2.01
2022-12-11T09:46:46.852Z,2.11
2022-12-11T09:51:51.921Z,1.86
2022-12-11T09:56:52.978Z,2.12
2022-12-11T10:01:59.145Z,1.76
2022-12-11T10:06:57.245Z,1.84
2022-12-11T10:12:16.412Z,2.33
2022-12-11T10:17:17.216Z,2.01
2022-12-11T10:22:18.924Z,1.84
2022-12-11T10:27:19.794Z,2.23
2022-12-11T10:32:28.019Z,1.79
2022-12-11T10:37:19.812Z,1.88
2022-12-11T10:42:21.015Z,1.88
2022-12-11T10:47:15.579Z,2.12
2022-12-11T10:52:23.196Z,2.03
2022-12-11T10:57:15.783Z,2.19
2022-12-11T11:02:42.696Z,2.17
2022-12-11T11:07:34.420Z,1.89
2022-12-11T11:12:28.783Z,2.08
2022-12-11T11:17:20.349Z,1.66
2022-12-11T11:22:17.982Z,2.23
2022-12-11T11:27:35.663Z,2.46
2022-12-11T11:32:34.360Z,2.20
2022-12-11T11:37:35.088Z,2.36
2022-12-11T11:42:39.356Z,2.30
2022-12-11T11:47:41.153Z,2.19
2022-12-11T11:52:40.845Z,2.53
2022-12-11T11:57:42.969Z,2.54
2022-12-11T12:02:34.622Z,2.59
2022-12-11T12:07:52.457Z,2.39
2022-12-11T12:13:44.352Z,2.65
2022-12-11T12:18:41.044Z,2.59
2022-12-11T12:23:53.004Z,2.50
2022-12-11T12:28:58.168Z,2.42
2022-12-11T12:33:55.790Z,2.48
2022-12-11T12:38:58.802Z,1.83
2022-12-11T12:44:10.733Z,2.06
2022-12-11T12:49:04.119Z,2.12
2022-12-11T12:53:59.229Z,2.44
2022-12-11T12:58:50.816Z,2.33
2022-12-11T13:04:54.001Z,2.13
2022-12-11T13:09:39.093Z,2.17
2022-12-11T13:14:32.546Z,2.16
2022-12-11T13:19:24.177Z,2.47
2022-12-11T13:24:21.862Z,2.51
2022-12-11T13:29:31.704Z,2.54
2022-12-11T13:34:24.265Z,2.21
2022-12-11T13:39:30.469Z,2.59
2022-12-11T13:44:32.797Z,2.26
2022-12-11T13:49:28.538Z,1.93
2022-12-11T13:54:21.785Z,2.41
2022-12-11T13:59:51.026Z,1.90
2022-12-11T14:04:44.937Z,1.84
2022-12-11T14:09:44.175Z,2.05
2022-12-11T14:14:46.397Z,2.22
2022-12-11T14:19:39.171Z,2.05
2022-12-11T14:24:31.946Z,2.19
2022-12-11T14:29:29.757Z,1.69
2022-12-11T14:34:26.836Z,2.16
2022-12-11T14:39:28.814Z,2.04
2022-12-11T14:44:24.076Z,1.57
2022-12-11T14:49:23.944Z,1.92
2022-12-11T14:54:29.544Z,1.37
2022-12-11T14:59:28.508Z,1.89
2022-12-11T15:04:28.389Z,1.85
2022-12-11T15:09:38.325Z,1.90
2022-12-11T15:14:29.990Z,1.38
2022-12-11T15:19:31.958Z,1.83
2022-12-11T15:24:37.564Z,1.66
2022-12-11T15:29:40.208Z,1.75
2022-12-11T15:34:42.090Z,1.81
2022-12-11T15:39:33.696Z,1.69
2022-12-11T15:44:26.052Z,1.55
2022-12-11T15:49:18.982Z,1.24
2022-12-11T15:54:10.893Z,0.73
2022-12-11T15:59:06.693Z,1.62
2022-12-11T16:04:03.317Z,1.57
2022-12-11T16:08:56.620Z,1.53
2022-12-11T16:13:48.164Z,1.25
2022-12-11T16:18:39.808Z,1.41
2022-12-11T16:23:32.849Z,1.18
2022-12-11T16:28:24.432Z,1.49
2022-12-11T16:33:16.425Z,1.29
2022-12-11T16:38:08.193Z,1.57
2022-12-11T16:43:01.021Z,1.52
2022-12-11T16:47:54.342Z,1.51
2022-12-11T16:52:46.080Z,1.50
2022-12-11T16:57:38.000Z,1.48
2022-12-11T17:02:29.922Z,1.47
2022-12-11T17:07:21.598Z,1.38
2022-12-11T17:12:14.004Z,1.14
2022-12-11T17:17:05.654Z,1.33
2022-12-11T17:21:59.312Z,1.36
2022-12-11T17:26:50.880Z,1.42
2022-12-11T17:31:42.433Z,1.00
2022-12-11T17:36:34.045Z,1.38
2022-12-11T17:41:26.077Z,1.26
2022-12-11T17:46:18.948Z,0.94
2022-12-11T17:51:13.631Z,1.36
2022-12-11T17:56:08.374Z,1.40
2022-12-11T18:01:00.653Z,1.52
2022-12-11T18:05:55.051Z,1.13
2022-12-11T18:10:49.216Z,1.01
2022-12-11T18:15:41.117Z,1.24
2022-12-11T18:20:34.307Z,1.21
2022-12-11T18:25:26.426Z,1.19
2022-12-11T18:30:18.502Z,1.12
2022-12-11T18:35:11.362Z,0.80
2022-12-11T18:40:04.484Z,0.88
2022-12-11T18:44:56.111Z,1.30
2022-12-11T18:49:47.676Z,0.75
2022-12-11T18:54:39.259Z,1.23
2022-12-11T18:59:30.851Z,1.26
2022-12-11T19:04:22.441Z,1.36
2022-12-11T19:09:13.997Z,1.22
2022-12-11T19:14:06.128Z,1.44
2022-12-11T19:18:59.423Z,1.53
2022-12-11T19:23:51.239Z,0.90
2022-12-11T19:28:43.165Z,0.92
2022-12-11T19:33:34.734Z,0.88
2022-12-11T19:38:26.351Z,1.16
2022-12-11T19:43:19.538Z,1.09
2022-12-11T19:48:11.229Z,1.06
2022-12-11T19:53:04.009Z,1.00
2022-12-11T19:57:56.098Z,0.82
2022-12-11T20:02:49.032Z,0.94
2022-12-11T20:07:40.725Z,0.71
2022-12-11T20:12:32.611Z,1.18
2022-12-11T20:17:25.142Z,1.16
2022-12-11T20:22:16.717Z,1.23
2022-12-11T20:27:10.660Z,0.33
2022-12-11T20:32:02.403Z,1.16
2022-12-11T20:36:54.576Z,1.26
2022-12-11T20:41:46.163Z,1.40
2022-12-11T20:46:37.699Z,1.21
2022-12-11T20:51:29.843Z,0.47
2022-12-11T20:56:22.137Z,1.24
2022-12-11T21:01:22.443Z,1.24
2022-12-11T21:06:32.361Z,1.17
2022-12-11T21:11:24.202Z,1.19
2022-12-11T21:16:16.033Z,1.26
2022-12-11T21:21:07.690Z,0.68
2022-12-11T21:25:59.694Z,1.12
2022-12-11T21:30:51.272Z,1.01
2022-12-11T21:35:43.477Z,0.68
2022-12-11T21:40:35.456Z,0.40
2022-12-11T21:50:39.341Z,-0.34
2022-12-11T21:55:30.869Z,-0.11
2022-12-11T22:00:23.057Z,-0.15
2022-12-11T22:05:15.216Z,-0.30
2022-12-11T22:22:39.531Z,-0.27
2022-12-11T22:27:31.149Z,-0.09
2022-12-11T22:32:24.208Z,-0.25
2022-12-11T22:37:16.085Z,-0.03
2022-12-11T22:42:07.616Z,0.02
2022-12-11T22:46:59.178Z,-0.19
2022-12-11T22:51:50.735Z,0.10
2022-12-11T22:56:43.173Z,-0.18
2022-12-11T23:01:34.768Z,0.33
2022-12-11T23:06:26.429Z,0.21
2022-12-11T23:11:19.817Z,0.67
2022-12-11T23:16:11.610Z,0.74
2022-12-11T23:21:04.157Z,0.09
2022-12-11T23:25:56.641Z,0.36
2022-12-11T23:30:48.466Z,0.96
2022-12-11T23:35:40.116Z,1.02
2022-12-11T23:40:32.806Z,1.04
2022-12-11T23:45:24.469Z,1.04
2022-12-11T23:50:16.134Z,1.14
2022-12-11T23:55:08.438Z,1.26
